N1LT NZMS-NZNS
Flight info
| Callsign | N1LT |
|---|---|
| Flight time | 0h 39m |
| Altitude | 16000 |
| Route | LADIT Y242 WN H133 WB/N0249F150 H133 LUBSI |
| Aircraft | B60T/L-SBDFGIJ1RYZ/SB2 |
Departure
| Time | 2026-04-21 10:50 |
|---|---|
| Airport | Hood Airport (NZMS) |
Arrival
| Time | 2026-04-21 11:29 |
|---|---|
| Airport | Nelson Airport (NZNS) |
| Time | Latitude | Longitude | Altitude | Speed | Heading |
|---|---|---|---|---|---|
| 2026-04-21 10:27 | -40.97166 | 175.62835 | 398 ft | 0 kts | 155° |
| 2026-04-21 10:39 | -40.97167 | 175.62836 | 417 ft | 1 kts | 155° |
| 2026-04-21 10:40 | -40.97195 | 175.62870 | 420 ft | 12 kts | 79° |
| 2026-04-21 10:40 | -40.97184 | 175.63012 | 427 ft | 16 kts | 83° |
| 2026-04-21 10:40 | -40.97166 | 175.63147 | 424 ft | 13 kts | 76° |
| 2026-04-21 10:40 | -40.97236 | 175.63234 | 424 ft | 20 kts | 170° |
| 2026-04-21 10:41 | -40.97364 | 175.63262 | 425 ft | 8 kts | 172° |
| 2026-04-21 10:41 | -40.97391 | 175.63271 | 423 ft | 12 kts | 141° |
| 2026-04-21 10:41 | -40.97380 | 175.63446 | 423 ft | 25 kts | 71° |
| 2026-04-21 10:41 | -40.97336 | 175.63656 | 422 ft | 17 kts | 96° |
| 2026-04-21 10:42 | -40.97325 | 175.63797 | 427 ft | 19 kts | 83° |
| 2026-04-21 10:42 | -40.97286 | 175.63983 | 423 ft | 21 kts | 71° |
| 2026-04-21 10:42 | -40.97277 | 175.64045 | 423 ft | 2 kts | 168° |
| 2026-04-21 10:44 | -40.97283 | 175.64047 | 423 ft | 0 kts | 168° |
| 2026-04-21 10:44 | -40.97292 | 175.64049 | 426 ft | 0 kts | 168° |
| 2026-04-21 10:44 | -40.97291 | 175.64049 | 429 ft | 2 kts | 168° |
| 2026-04-21 10:44 | -40.97285 | 175.64047 | 422 ft | 0 kts | 193° |
| 2026-04-21 10:45 | -40.97311 | 175.64041 | 429 ft | 1 kts | 180° |
| 2026-04-21 10:45 | -40.97291 | 175.64041 | 426 ft | 5 kts | 178° |
| 2026-04-21 10:45 | -40.97274 | 175.64043 | 424 ft | 0 kts | 194° |
| 2026-04-21 10:46 | -40.97276 | 175.64042 | 423 ft | 0 kts | 194° |
| 2026-04-21 10:46 | -40.97292 | 175.64037 | 425 ft | 0 kts | 193° |
| 2026-04-21 10:47 | -40.97294 | 175.64038 | 424 ft | 1 kts | 154° |
| 2026-04-21 10:47 | -40.97317 | 175.64058 | 422 ft | 12 kts | 155° |
| 2026-04-21 10:48 | -40.97351 | 175.64081 | 424 ft | 0 kts | 108° |
| 2026-04-21 10:48 | -40.97349 | 175.64096 | 429 ft | 10 kts | 76° |
| 2026-04-21 10:48 | -40.97326 | 175.64184 | 428 ft | 10 kts | 74° |
| 2026-04-21 10:48 | -40.97334 | 175.64175 | 426 ft | 0 kts | 256° |
| 2026-04-21 10:49 | -40.97336 | 175.64163 | 426 ft | 13 kts | 256° |
| 2026-04-21 10:49 | -40.97411 | 175.63673 | 456 ft | 88 kts | 243° |
| 2026-04-21 10:50 | -40.97591 | 175.62763 | 797 ft | 109 kts | 249° |
| 2026-04-21 10:50 | -40.97794 | 175.61760 | 1309 ft | 124 kts | 242° |
| 2026-04-21 10:50 | -40.97991 | 175.60561 | 2008 ft | 134 kts | 239° |
| 2026-04-21 10:50 | -40.98466 | 175.59716 | 2759 ft | 97 kts | 191° |
| 2026-04-21 10:51 | -40.99144 | 175.59600 | 3271 ft | 107 kts | 162° |
| 2026-04-21 10:51 | -40.99627 | 175.60404 | 3661 ft | 130 kts | 115° |
| 2026-04-21 10:51 | -40.99769 | 175.61605 | 4076 ft | 137 kts | 110° |
| 2026-04-21 10:51 | -40.99813 | 175.62892 | 4522 ft | 148 kts | 96° |
| 2026-04-21 10:52 | -40.99352 | 175.64224 | 4976 ft | 168 kts | 73° |
| 2026-04-21 10:52 | -40.98706 | 175.65519 | 5435 ft | 169 kts | 72° |
| 2026-04-21 10:52 | -40.98060 | 175.66811 | 5884 ft | 168 kts | 72° |
| 2026-04-21 10:52 | -40.97435 | 175.68110 | 6342 ft | 166 kts | 74° |
| 2026-04-21 10:53 | -40.96822 | 175.69394 | 6766 ft | 165 kts | 71° |
| 2026-04-21 10:53 | -40.95918 | 175.70454 | 7168 ft | 189 kts | 37° |
| 2026-04-21 10:53 | -40.94569 | 175.70764 | 7576 ft | 205 kts | 5° |
| 2026-04-21 10:53 | -40.93166 | 175.70343 | 8016 ft | 211 kts | 339° |
| 2026-04-21 10:54 | -40.91993 | 175.69171 | 8447 ft | 213 kts | 307° |
| 2026-04-21 10:54 | -40.91407 | 175.67435 | 8867 ft | 206 kts | 268° |
| 2026-04-21 10:54 | -40.91662 | 175.65626 | 9351 ft | 200 kts | 236° |
| 2026-04-21 10:54 | -40.92268 | 175.63983 | 9894 ft | 204 kts | 232° |
| 2026-04-21 10:55 | -40.92908 | 175.62286 | 10398 ft | 209 kts | 234° |
| 2026-04-21 10:55 | -40.93543 | 175.60550 | 10895 ft | 207 kts | 228° |
| 2026-04-21 10:55 | -40.94271 | 175.58898 | 11384 ft | 212 kts | 236° |
| 2026-04-21 10:55 | -40.94817 | 175.57064 | 11876 ft | 216 kts | 244° |
| 2026-04-21 10:56 | -40.95316 | 175.55191 | 12373 ft | 216 kts | 244° |
| 2026-04-21 10:56 | -40.95841 | 175.53324 | 12868 ft | 217 kts | 242° |
| 2026-04-21 10:56 | -40.96398 | 175.51465 | 13364 ft | 218 kts | 241° |
| 2026-04-21 10:56 | -40.96971 | 175.49602 | 13832 ft | 219 kts | 242° |
| 2026-04-21 10:57 | -40.97555 | 175.47732 | 14284 ft | 220 kts | 242° |
| 2026-04-21 10:57 | -40.98424 | 175.46162 | 14731 ft | 205 kts | 206° |
| 2026-04-21 10:57 | -40.99649 | 175.45310 | 15170 ft | 193 kts | 185° |
| 2026-04-21 10:57 | -41.00948 | 175.45107 | 15560 ft | 189 kts | 174° |
| 2026-04-21 10:58 | -41.02292 | 175.45048 | 15801 ft | 199 kts | 171° |
| 2026-04-21 10:58 | -41.03723 | 175.45017 | 15900 ft | 211 kts | 173° |
| 2026-04-21 10:58 | -41.05225 | 175.45000 | 15944 ft | 220 kts | 173° |
| 2026-04-21 10:58 | -41.06767 | 175.44974 | 15964 ft | 223 kts | 173° |
| 2026-04-21 10:59 | -41.08328 | 175.44959 | 15975 ft | 228 kts | 173° |
| 2026-04-21 10:59 | -41.09953 | 175.44971 | 15984 ft | 238 kts | 172° |
| 2026-04-21 10:59 | -41.11638 | 175.45013 | 15988 ft | 242 kts | 172° |
| 2026-04-21 10:59 | -41.13214 | 175.45041 | 15985 ft | 219 kts | 171° |
| 2026-04-21 11:00 | -41.14732 | 175.44920 | 15989 ft | 228 kts | 187° |
| 2026-04-21 11:00 | -41.16138 | 175.43765 | 16001 ft | 253 kts | 222° |
| 2026-04-21 11:00 | -41.16938 | 175.41647 | 16001 ft | 270 kts | 253° |
| 2026-04-21 11:00 | -41.17215 | 175.39152 | 16001 ft | 276 kts | 260° |
| 2026-04-21 11:01 | -41.17499 | 175.36626 | 16000 ft | 277 kts | 256° |
| 2026-04-21 11:01 | -41.17909 | 175.34129 | 15996 ft | 277 kts | 252° |
| 2026-04-21 11:01 | -41.18402 | 175.31655 | 15996 ft | 277 kts | 250° |
| 2026-04-21 11:02 | -41.19505 | 175.26749 | 16003 ft | 277 kts | 249° |
| 2026-04-21 11:02 | -41.20076 | 175.24314 | 16003 ft | 275 kts | 248° |
| 2026-04-21 11:02 | -41.20650 | 175.21895 | 16004 ft | 274 kts | 248° |
| 2026-04-21 11:02 | -41.21221 | 175.19485 | 16011 ft | 274 kts | 248° |
| 2026-04-21 11:03 | -41.21781 | 175.17124 | 16019 ft | 274 kts | 248° |
| 2026-04-21 11:03 | -41.22353 | 175.14709 | 16015 ft | 274 kts | 248° |
| 2026-04-21 11:03 | -41.22925 | 175.12287 | 16019 ft | 275 kts | 248° |
| 2026-04-21 11:03 | -41.23497 | 175.09864 | 16019 ft | 275 kts | 248° |
| 2026-04-21 11:04 | -41.24068 | 175.07441 | 16020 ft | 275 kts | 248° |
| 2026-04-21 11:04 | -41.24632 | 175.05018 | 16019 ft | 274 kts | 248° |
| 2026-04-21 11:04 | -41.25182 | 175.02596 | 16016 ft | 273 kts | 249° |
| 2026-04-21 11:04 | -41.25736 | 175.00182 | 16024 ft | 273 kts | 248° |
| 2026-04-21 11:05 | -41.26292 | 174.97767 | 16022 ft | 273 kts | 248° |
| 2026-04-21 11:05 | -41.26863 | 174.95363 | 16027 ft | 273 kts | 246° |
| 2026-04-21 11:05 | -41.27468 | 174.92980 | 16035 ft | 273 kts | 245° |
| 2026-04-21 11:05 | -41.28069 | 174.90576 | 16028 ft | 274 kts | 247° |
| 2026-04-21 11:06 | -41.28650 | 174.88168 | 16028 ft | 274 kts | 246° |
| 2026-04-21 11:06 | -41.29225 | 174.85754 | 16027 ft | 274 kts | 246° |
| 2026-04-21 11:06 | -41.29803 | 174.83339 | 16030 ft | 274 kts | 246° |
| 2026-04-21 11:06 | -41.30379 | 174.80917 | 16028 ft | 275 kts | 248° |
| 2026-04-21 11:07 | -41.30946 | 174.78488 | 16033 ft | 275 kts | 248° |
| 2026-04-21 11:07 | -41.31509 | 174.76057 | 16023 ft | 275 kts | 248° |
| 2026-04-21 11:07 | -41.32070 | 174.73620 | 16020 ft | 276 kts | 247° |
| 2026-04-21 11:07 | -41.32631 | 174.71186 | 16029 ft | 273 kts | 247° |
| 2026-04-21 11:08 | -41.33175 | 174.68812 | 16022 ft | 264 kts | 248° |
| 2026-04-21 11:08 | -41.33707 | 174.66498 | 16023 ft | 259 kts | 247° |
| 2026-04-21 11:08 | -41.34231 | 174.64226 | 16015 ft | 255 kts | 248° |
| 2026-04-21 11:08 | -41.34751 | 174.61987 | 16026 ft | 252 kts | 248° |
| 2026-04-21 11:09 | -41.35268 | 174.59769 | 16022 ft | 250 kts | 248° |
| 2026-04-21 11:09 | -41.35777 | 174.57559 | 16030 ft | 249 kts | 248° |
| 2026-04-21 11:09 | -41.36287 | 174.55361 | 16030 ft | 248 kts | 246° |
| 2026-04-21 11:09 | -41.36796 | 174.53155 | 16032 ft | 250 kts | 248° |
| 2026-04-21 11:10 | -41.37304 | 174.50935 | 16035 ft | 252 kts | 248° |
| 2026-04-21 11:10 | -41.37817 | 174.48712 | 16036 ft | 259 kts | 248° |
| 2026-04-21 11:10 | -41.38354 | 174.46393 | 16039 ft | 265 kts | 249° |
| 2026-04-21 11:10 | -41.38895 | 174.44027 | 16038 ft | 269 kts | 248° |
| 2026-04-21 11:11 | -41.39443 | 174.41632 | 16037 ft | 271 kts | 249° |
| 2026-04-21 11:11 | -41.39992 | 174.39220 | 16043 ft | 273 kts | 250° |
| 2026-04-21 11:11 | -41.40532 | 174.36834 | 16045 ft | 263 kts | 250° |
| 2026-04-21 11:11 | -41.41045 | 174.34554 | 16050 ft | 252 kts | 250° |
| 2026-04-21 11:12 | -41.41547 | 174.32350 | 16061 ft | 246 kts | 249° |
| 2026-04-21 11:12 | -41.42044 | 174.30182 | 16067 ft | 246 kts | 248° |
| 2026-04-21 11:12 | -41.42557 | 174.27962 | 16071 ft | 255 kts | 249° |
| 2026-04-21 11:12 | -41.43080 | 174.25675 | 16076 ft | 261 kts | 250° |
| 2026-04-21 11:13 | -41.43607 | 174.23350 | 16073 ft | 263 kts | 250° |
| 2026-04-21 11:13 | -41.44132 | 174.21021 | 16071 ft | 262 kts | 251° |
| 2026-04-21 11:13 | -41.44656 | 174.18694 | 16072 ft | 262 kts | 250° |
| 2026-04-21 11:13 | -41.45179 | 174.16377 | 16074 ft | 261 kts | 250° |
| 2026-04-21 11:14 | -41.45704 | 174.14066 | 16076 ft | 260 kts | 249° |
| 2026-04-21 11:14 | -41.46225 | 174.11757 | 16075 ft | 260 kts | 250° |
| 2026-04-21 11:14 | -41.46745 | 174.09454 | 16078 ft | 259 kts | 250° |
| 2026-04-21 11:14 | -41.47265 | 174.07152 | 16076 ft | 259 kts | 250° |
| 2026-04-21 11:15 | -41.47783 | 174.04852 | 16078 ft | 259 kts | 250° |
| 2026-04-21 11:15 | -41.48302 | 174.02553 | 16084 ft | 259 kts | 250° |
| 2026-04-21 11:15 | -41.48816 | 174.00253 | 16082 ft | 259 kts | 250° |
| 2026-04-21 11:15 | -41.49330 | 173.97951 | 16083 ft | 259 kts | 250° |
| 2026-04-21 11:16 | -41.49847 | 173.95650 | 16082 ft | 258 kts | 249° |
| 2026-04-21 11:16 | -41.50364 | 173.93358 | 16083 ft | 258 kts | 250° |
| 2026-04-21 11:16 | -41.50878 | 173.91068 | 16085 ft | 258 kts | 250° |
| 2026-04-21 11:16 | -41.51390 | 173.88774 | 16085 ft | 258 kts | 251° |
| 2026-04-21 11:17 | -41.51657 | 173.86403 | 16084 ft | 262 kts | 270° |
| 2026-04-21 11:17 | -41.51247 | 173.84075 | 16083 ft | 263 kts | 293° |
| 2026-04-21 11:17 | -41.50492 | 173.81846 | 16084 ft | 264 kts | 294° |
| 2026-04-21 11:17 | -41.49751 | 173.79602 | 16081 ft | 264 kts | 293° |
| 2026-04-21 11:18 | -41.49016 | 173.77362 | 16078 ft | 264 kts | 294° |
| 2026-04-21 11:18 | -41.48273 | 173.75114 | 16082 ft | 264 kts | 292° |
| 2026-04-21 11:18 | -41.47736 | 173.72783 | 16079 ft | 264 kts | 279° |
| 2026-04-21 11:18 | -41.47607 | 173.70359 | 16076 ft | 261 kts | 265° |
| 2026-04-21 11:19 | -41.47879 | 173.67988 | 16079 ft | 258 kts | 252° |
| 2026-04-21 11:19 | -41.48510 | 173.65769 | 16082 ft | 255 kts | 239° |
| 2026-04-21 11:19 | -41.49498 | 173.63843 | 16085 ft | 250 kts | 225° |
| 2026-04-21 11:19 | -41.50604 | 173.62043 | 16081 ft | 251 kts | 229° |
| 2026-04-21 11:20 | -41.51555 | 173.60090 | 16062 ft | 245 kts | 244° |
| 2026-04-21 11:20 | -41.51742 | 173.58030 | 15949 ft | 214 kts | 281° |
| 2026-04-21 11:20 | -41.51089 | 173.56338 | 15602 ft | 206 kts | 313° |
| 2026-04-21 11:20 | -41.50062 | 173.55006 | 15105 ft | 206 kts | 320° |
| 2026-04-21 11:21 | -41.49367 | 173.54143 | 14795 ft | 206 kts | 318° |
| 2026-04-21 11:21 | -41.48368 | 173.52779 | 14347 ft | 205 kts | 314° |
| 2026-04-21 11:21 | -41.47426 | 173.51362 | 13853 ft | 204 kts | 312° |
| 2026-04-21 11:21 | -41.46516 | 173.49917 | 13354 ft | 203 kts | 311° |
| 2026-04-21 11:22 | -41.45626 | 173.48459 | 12850 ft | 202 kts | 310° |
| 2026-04-21 11:22 | -41.44725 | 173.46966 | 12257 ft | 210 kts | 310° |
| 2026-04-21 11:22 | -41.43802 | 173.45428 | 11637 ft | 214 kts | 310° |
| 2026-04-21 11:22 | -41.42875 | 173.43879 | 11045 ft | 214 kts | 309° |
| 2026-04-21 11:23 | -41.41991 | 173.42401 | 10445 ft | 199 kts | 309° |
| 2026-04-21 11:23 | -41.41133 | 173.40964 | 9605 ft | 191 kts | 309° |
| 2026-04-21 11:23 | -41.40330 | 173.39626 | 8742 ft | 180 kts | 308° |
| 2026-04-21 11:23 | -41.39558 | 173.38346 | 7904 ft | 170 kts | 305° |
| 2026-04-21 11:24 | -41.38858 | 173.37175 | 7474 ft | 158 kts | 303° |
| 2026-04-21 11:24 | -41.38180 | 173.36028 | 6994 ft | 157 kts | 303° |
| 2026-04-21 11:24 | -41.37503 | 173.34890 | 6543 ft | 157 kts | 302° |
| 2026-04-21 11:24 | -41.36814 | 173.33737 | 5876 ft | 163 kts | 302° |
| 2026-04-21 11:25 | -41.36103 | 173.32557 | 5086 ft | 163 kts | 303° |
| 2026-04-21 11:25 | -41.35363 | 173.31308 | 5038 ft | 189 kts | 303° |
| 2026-04-21 11:25 | -41.34496 | 173.29852 | 5041 ft | 211 kts | 304° |
| 2026-04-21 11:25 | -41.33623 | 173.28412 | 4463 ft | 194 kts | 305° |
| 2026-04-21 11:26 | -41.32780 | 173.27047 | 3493 ft | 188 kts | 305° |
| 2026-04-21 11:26 | -41.31975 | 173.25736 | 2673 ft | 180 kts | 306° |
| 2026-04-21 11:26 | -41.31229 | 173.24502 | 1922 ft | 158 kts | 305° |
| 2026-04-21 11:26 | -41.30590 | 173.23451 | 1282 ft | 137 kts | 304° |
| 2026-04-21 11:27 | -41.30040 | 173.22529 | 1002 ft | 113 kts | 305° |
| 2026-04-21 11:27 | -41.29552 | 173.21702 | 830 ft | 126 kts | 305° |
| 2026-04-21 11:27 | -41.28863 | 173.20900 | 903 ft | 140 kts | 346° |
| 2026-04-21 11:27 | -41.27928 | 173.21016 | 837 ft | 135 kts | 29° |
| 2026-04-21 11:28 | -41.27538 | 173.22007 | 756 ft | 129 kts | 106° |
| 2026-04-21 11:28 | -41.27969 | 173.23039 | 613 ft | 118 kts | 143° |
| 2026-04-21 11:28 | -41.28601 | 173.23350 | 394 ft | 91 kts | 183° |
| 2026-04-21 11:28 | -41.29190 | 173.22995 | 212 ft | 98 kts | 223° |
| 2026-04-21 11:29 | -41.29650 | 173.22454 | 148 ft | 75 kts | 219° |
| 2026-04-21 11:29 | -41.29893 | 173.22178 | 150 ft | 12 kts | 223° |
| 2026-04-21 11:29 | -41.29991 | 173.22066 | 151 ft | 13 kts | 222° |
| 2026-04-21 11:29 | -41.30062 | 173.22072 | 154 ft | 26 kts | 128° |
| 2026-04-21 11:30 | -41.30067 | 173.22196 | 153 ft | 20 kts | 36° |
| 2026-04-21 11:30 | -41.29950 | 173.22330 | 150 ft | 22 kts | 40° |
| 2026-04-21 11:30 | -41.29805 | 173.22495 | 147 ft | 26 kts | 29° |
| 2026-04-21 11:30 | -41.29668 | 173.22567 | 143 ft | 25 kts | 27° |
| 2026-04-21 11:31 | -41.29630 | 173.22675 | 141 ft | 15 kts | 89° |
| 2026-04-21 11:31 | -41.29642 | 173.22723 | 140 ft | 2 kts | 230° |
| 2026-04-21 11:31 | -41.29636 | 173.22712 | 139 ft | 0 kts | 347° |
| 2026-04-21 11:31 | -41.29636 | 173.22711 | 139 ft | 0 kts | 353° |
| 2026-04-21 11:32 | -41.29639 | 173.22711 | 140 ft | 1 kts | 352° |
| 2026-04-21 11:32 | -41.29640 | 173.22711 | 140 ft | 0 kts | 353° |